Latest Weather Observations for St Kilda Harbour RMYS

IDV60801

Issued at 12:31 am EDT Sunday 21 December 2014 (issued every 30 minutes, with the page automatically refreshed every 10 minutes)

About weather observations | Map of weather stations | Latest weather observations for VIC | Other Formats
Station Details ID: 086220 Name: ST KILDA HARBOUR - RMYS Lat: -37.86 Lon: 144.96 Height: 6.4 m
Data from the previous 72 hours. | See also: Recent months for locations in Victoria
Date/Time
EDT
Temp
°C
App
Temp
°C
Dew
Point
Rel
Hum
%
Delta-T
°C
Wind Press
QNH
hPa
Press
MSL
hPa
Rain
since 9 am
mm
Dir
 
Spd
km/h
Gust
km/h
Spd
kts
Gust
kts
21/12:30am - - - - - ESE 7 9 4 5 - - -
21/12:00am - - - - - SE 7 11 4 6 - - -
 
Date/Time
EDT
Temp
°C
App
Temp
°C
Dew
Point
Rel
Hum
%
Delta-T
°C
Wind Press
QNH
hPa
Press
MSL
hPa
Rain
since 9 am
mm
Dir
 
Spd
km/h
Gust
km/h
Spd
kts
Gust
kts
20/11:30pm - - - - - SE 11 15 6 8 - - -
20/11:00pm - - - - - SE 11 15 6 8 - - -
20/10:30pm - - - - - ESE 13 17 7 9 - - -
20/10:00pm - - - - - SSE 17 20 9 11 - - -
20/09:30pm - - - - - SSE 20 24 11 13 - - -
20/09:00pm - - - - - SSE 26 30 14 16 - - -
20/08:30pm - - - - - S 32 35 17 19 - - -
20/08:00pm - - - - - S 33 37 18 20 - - -
20/07:30pm - - - - - S 33 41 18 22 - - -
20/07:00pm - - - - - SSW 33 37 18 20 - - -
20/06:30pm - - - - - S 30 35 16 19 - - -
20/06:00pm - - - - - S 28 32 15 17 - - -
20/05:30pm - - - - - S 28 32 15 17 - - -
20/05:00pm - - - - - S 26 30 14 16 - - -
20/04:30pm - - - - - S 26 32 14 17 - - -
20/04:00pm - - - - - S 32 35 17 19 - - -
20/03:30pm - - - - - S 26 32 14 17 - - -
20/03:00pm - - - - - S 17 19 9 10 - - -
20/02:30pm - - - - - S 17 19 9 10 - - -
20/02:00pm - - - - - S 17 20 9 11 - - -
20/01:30pm - - - - - SSE 7 11 4 6 - - -
20/01:00pm - - - - - SSE 11 13 6 7 - - -
20/12:30pm - - - - - SSE 7 13 4 7 - - -
20/12:00pm - - - - - S 7 13 4 7 - - -
20/11:30am - - - - - S 9 17 5 9 - - -
20/11:00am - - - - - SSW 13 19 7 10 - - -
20/10:30am - - - - - SW 13 19 7 10 - - -
20/10:00am - - - - - SW 15 19 8 10 - - -
20/09:30am - - - - - SW 13 17 7 9 - - -
20/09:00am - - - - - WSW 7 15 4 8 - - -
20/08:30am - - - - - WSW 11 15 6 8 - - -
20/08:00am - - - - - W 9 15 5 8 - - -
20/07:30am - - - - - W 11 15 6 8 - - -
20/07:00am - - - - - WNW 11 17 6 9 - - -
20/06:30am - - - - - WNW 13 17 7 9 - - -
20/06:00am - - - - - W 15 19 8 10 - - -
20/05:30am - - - - - WSW 17 20 9 11 - - -
20/05:00am - - - - - WSW 19 24 10 13 - - -
20/04:30am - - - - - WSW 26 30 14 16 - - -
20/04:00am - - - - - WSW 22 26 12 14 - - -
20/03:30am - - - - - WSW 22 26 12 14 - - -
20/03:00am - - - - - WSW 24 30 13 16 - - -
20/02:30am - - - - - WSW 20 26 11 14 - - -
20/02:00am - - - - - W 20 24 11 13 - - -
20/01:30am - - - - - WSW 24 28 13 15 - - -
20/01:00am - - - - - SSW 20 28 11 15 - - -
20/12:30am - - - - - SSW 17 22 9 12 - - -
20/12:00am - - - - - S 20 28 11 15 - - -
 
Date/Time
EDT
Temp
°C
App
Temp
°C
Dew
Point
Rel
Hum
%
Delta-T
°C
Wind Press
QNH
hPa
Press
MSL
hPa
Rain
since 9 am
mm
Dir
 
Spd
km/h
Gust
km/h
Spd
kts
Gust
kts
19/11:30pm - - - - - S 22 28 12 15 - - -
19/11:00pm - - - - - S 22 28 12 15 - - -
19/10:30pm - - - - - S 22 28 12 15 - - -
19/10:00pm - - - - - S 20 28 11 15 - - -
19/09:30pm - - - - - S 22 28 12 15 - - -
19/09:00pm - - - - - S 24 30 13 16 - - -
19/08:30pm - - - - - S 24 32 13 17 - - -
19/08:00pm - - - - - S 30 37 16 20 - - -
19/07:30pm - - - - - S 30 39 16 21 - - -
19/07:00pm - - - - - S 28 35 15 19 - - -
19/06:30pm - - - - - S 30 35 16 19 - - -
19/06:00pm - - - - - S 28 37 15 20 - - -
19/05:30pm - - - - - S 26 35 14 19 - - -
19/05:00pm - - - - - S 26 32 14 17 - - -
19/04:30pm - - - - - S 24 30 13 16 - - -
19/04:00pm - - - - - S 24 28 13 15 - - -
19/03:30pm - - - - - S 26 32 14 17 - - -
19/03:00pm - - - - - S 24 32 13 17 - - -
19/02:30pm - - - - - S 22 28 12 15 - - -
19/02:00pm - - - - - S 22 26 12 14 - - -
19/01:30pm - - - - - S 22 30 12 16 - - -
19/01:00pm - - - - - SSW 26 32 14 17 - - -
19/12:30pm - - - - - SSW 24 33 13 18 - - -
19/12:00pm - - - - - SSW 24 32 13 17 - - -
19/11:30am - - - - - SW 20 32 11 17 - - -
19/11:00am - - - - - SW 22 30 12 16 - - -
19/10:30am - - - - - SW 24 30 13 16 - - -
19/10:00am - - - - - SW 28 35 15 19 - - -
19/09:30am - - - - - SW 32 39 17 21 - - -
19/09:00am - - - - - SW 32 41 17 22 - - -
19/08:30am - - - - - WSW 30 35 16 19 - - -
19/08:00am - - - - - WSW 32 37 17 20 - - -
19/07:30am - - - - - WSW 37 43 20 23 - - -
19/07:00am - - - - - W 26 39 14 21 - - -
19/06:30am - - - - - WSW 35 41 19 22 - - -
19/06:00am - - - - - W 22 28 12 15 - - -
19/05:30am - - - - - W 22 26 12 14 - - -
19/05:00am - - - - - W 24 37 13 20 - - -
19/04:30am - - - - - W 24 30 13 16 - - -
19/04:00am - - - - - WSW 26 37 14 20 - - -
19/03:30am - - - - - W 28 33 15 18 - - -
19/03:00am - - - - - W 24 33 13 18 - - -
19/02:30am - - - - - W 28 35 15 19 - - -
19/02:00am - - - - - WSW 33 39 18 21 - - -
19/01:30am - - - - - WSW 33 41 18 22 - - -
19/01:00am - - - - - WSW 35 39 19 21 - - -
19/12:30am - - - - - WSW 39 43 21 23 - - -
19/12:00am - - - - - WSW 35 41 19 22 - - -
 
Date/Time
EDT
Temp
°C
App
Temp
°C
Dew
Point
Rel
Hum
%
Delta-T
°C
Wind Press
QNH
hPa
Press
MSL
hPa
Rain
since 9 am
mm
Dir
 
Spd
km/h
Gust
km/h
Spd
kts
Gust
kts
18/11:30pm - - - - - WSW 39 46 21 25 - - -
18/11:00pm - - - - - WSW 39 44 21 24 - - -
18/10:54pm - - - - - WSW 35 44 19 24 - - -
18/10:30pm - - - - - SSW 28 33 15 18 - - -
18/10:00pm - - - - - SSW 24 30 13 16 - - -
18/09:30pm - - - - - SSW 19 26 10 14 - - -
18/09:00pm - - - - - SSW 17 24 9 13 - - -
18/08:30pm - - - - - WSW 13 20 7 11 - - -
18/08:00pm - - - - - SSW 15 28 8 15 - - -
18/07:30pm - - - - - W 19 22 10 12 - - -
18/07:00pm - - - - - WSW 26 33 14 18 - - -
18/06:30pm - - - - - WSW 22 30 12 16 - - -
18/06:00pm - - - - - W 13 19 7 10 - - -
18/05:30pm - - - - - WSW 26 32 14 17 - - -
18/05:00pm - - - - - WSW 46 56 25 30 - - -
18/04:30pm - - - - - WSW 56 67 30 36 - - -
18/04:17pm - - - - - WSW 50 69 27 37 - - -
18/04:00pm - - - - - SW 57 69 31 37 - - -
18/03:30pm - - - - - SW 70 89 38 48 - - -
18/03:22pm - - - - - SSW 48 87 26 47 - - -
18/03:21pm - - - - - SSW 44 80 24 43 - - -
18/03:20pm - - - - - SSW 41 80 22 43 - - -
18/03:00pm - - - - - SSW 30 35 16 19 - - -
18/02:30pm - - - - - WSW 17 22 9 12 - - -
18/02:00pm - - - - - W 24 35 13 19 - - -
18/01:30pm - - - - - W 33 43 18 23 - - -
18/01:00pm - - - - - WSW 35 46 19 25 - - -
18/12:30pm - - - - - WSW 30 35 16 19 - - -
18/12:00pm - - - - - WSW 35 44 19 24 - - -
18/11:30am - - - - - WSW 39 46 21 25 - - -
18/11:00am - - - - - SW 26 33 14 18 - - -
18/10:30am - - - - - WNW 30 39 16 21 - - -
18/10:00am - - - - - NW 22 32 12 17 - - -
18/09:30am - - - - - WNW 20 26 11 14 - - -
18/09:00am - - - - - WNW 9 13 5 7 - - -
18/08:30am - - - - - NW 7 9 4 5 - - -
18/08:00am - - - - - WNW 4 9 2 5 - - -
18/07:30am - - - - - NNE 7 9 4 5 - - -
18/07:00am - - - - - N 7 9 4 5 - - -
18/06:30am - - - - - NNE 7 9 4 5 - - -
18/06:00am - - - - - NNE 7 11 4 6 - - -
18/05:30am - - - - - N 9 13 5 7 - - -
18/05:00am - - - - - N 9 13 5 7 - - -
18/04:30am - - - - - NNW 11 15 6 8 - - -
18/04:00am - - - - - NNW 11 15 6 8 - - -
18/03:30am - - - - - NNW 7 19 4 10 - - -
18/03:00am - - - - - NNE 6 7 3 4 - - -
18/02:30am - - - - - NE 4 4 2 2 - - -
18/02:00am - - - - - E 6 7 3 4 - - -
18/01:30am - - - - - ESE 7 9 4 5 - - -
18/01:00am - - - - - ESE 9 13 5 7 - - -

Other Formats:

Comma delimited format used in spreadsheet applications
http://www.bom.gov.au/fwo/IDV60801/IDV60801.95864.axf

JavaScript Object Notation format (JSON) in row-major order
http://www.bom.gov.au/fwo/IDV60801/IDV60801.95864.json